createdAt,value
2023-02-24T00:00:53.235Z,99887.80
2023-02-24T00:04:22.306Z,99884.20
2023-02-24T00:07:49.933Z,99882.15
2023-02-24T00:11:19.831Z,99881.30
2023-02-24T00:14:47.975Z,99875.77
2023-02-24T00:18:16.169Z,99868.13
2023-02-24T00:21:44.337Z,99861.20
2023-02-24T00:25:14.648Z,99854.61
2023-02-24T00:28:41.879Z,99849.92
2023-02-24T00:32:13.363Z,99844.38
2023-02-24T00:35:41.053Z,99841.08
2023-02-24T00:39:10.748Z,99833.62
2023-02-24T00:42:48.586Z,99829.98
2023-02-24T00:46:17.706Z,99827.88
2023-02-24T00:49:46.134Z,99828.91
2023-02-24T00:53:13.574Z,99825.23
2023-02-24T00:56:41.097Z,99817.73
2023-02-24T01:00:14.214Z,99818.02
2023-02-24T01:03:41.681Z,99818.14
2023-02-24T01:07:11.225Z,99814.75
2023-02-24T01:10:37.147Z,99817.98
2023-02-24T01:14:08.579Z,99812.02
2023-02-24T01:17:38.420Z,99811.09
2023-02-24T01:21:12.743Z,99804.14
2023-02-24T01:24:42.383Z,99797.34
2023-02-24T01:28:13.953Z,99789.17
2023-02-24T01:31:42.821Z,99790.03
2023-02-24T01:35:14.434Z,99787.94
2023-02-24T01:38:43.015Z,99783.09
2023-02-24T01:42:16.350Z,99781.52
2023-02-24T01:45:47.070Z,99774.45
2023-02-24T01:49:20.442Z,99773.10
2023-02-24T01:52:51.113Z,99768.42
2023-02-24T01:56:18.697Z,99761.48
2023-02-24T02:00:02.163Z,99757.30
2023-02-24T02:03:35.210Z,99757.44
2023-02-24T02:07:05.265Z,99753.44
2023-02-24T02:10:34.048Z,99749.40
2023-02-24T02:14:03.358Z,99747.11
2023-02-24T02:17:40.925Z,99744.34
2023-02-24T02:21:40.397Z,99741.52
2023-02-24T02:25:15.333Z,99736.45
2023-02-24T02:29:14.157Z,99734.67
2023-02-24T02:33:30.412Z,99730.64
2023-02-24T02:37:05.852Z,99727.67
2023-02-24T02:40:41.461Z,99721.95
2023-02-24T02:44:15.332Z,99718.83
2023-02-24T02:47:47.078Z,99721.09
2023-02-24T02:51:19.073Z,99718.48
2023-02-24T02:54:56.247Z,99713.44
2023-02-24T02:58:28.559Z,99717.03
2023-02-24T03:02:11.735Z,99712.66
2023-02-24T03:05:47.125Z,99707.04
2023-02-24T03:09:19.558Z,99703.17
2023-02-24T03:12:55.441Z,99701.88
2023-02-24T03:16:27.184Z,99702.01
2023-02-24T03:20:01.754Z,99698.48
2023-02-24T03:23:33.597Z,99697.42
2023-02-24T03:27:09.052Z,99698.23
2023-02-24T03:30:44.712Z,99698.18
2023-02-24T03:34:19.470Z,99691.75
2023-02-24T03:37:48.016Z,99688.61
2023-02-24T03:41:17.215Z,99686.30
2023-02-24T03:44:45.564Z,99683.83
2023-02-24T03:48:24.593Z,99682.59
2023-02-24T03:52:06.116Z,99681.88
2023-02-24T03:55:44.964Z,99680.09
2023-02-24T03:59:25.216Z,99678.13
2023-02-24T04:03:04.519Z,99672.70
2023-02-24T04:06:41.811Z,99668.33
2023-02-24T04:10:15.487Z,99668.95
2023-02-24T04:13:51.195Z,99662.64
2023-02-24T04:17:29.889Z,99660.33
2023-02-24T04:20:59.807Z,99659.92
2023-02-24T04:24:33.197Z,99653.96
2023-02-24T04:28:08.047Z,99645.23
2023-02-24T04:31:39.040Z,99641.55
2023-02-24T04:35:10.560Z,99639.59
2023-02-24T04:38:38.784Z,99635.39
2023-02-24T04:42:06.696Z,99634.16
2023-02-24T04:45:34.128Z,99631.38
2023-02-24T04:49:02.354Z,99631.70
2023-02-24T04:52:29.463Z,99627.46
2023-02-24T04:55:56.976Z,99621.86
2023-02-24T04:59:25.810Z,99617.85
2023-02-24T05:02:54.344Z,99614.03
2023-02-24T05:06:21.785Z,99609.88
2023-02-24T05:09:49.062Z,99607.10
2023-02-24T05:13:19.087Z,99601.39
2023-02-24T05:16:47.644Z,99600.70
2023-02-24T05:20:33.249Z,99599.48
2023-02-24T05:24:06.965Z,99593.59
2023-02-24T05:27:39.128Z,99589.98
2023-02-24T05:31:10.432Z,99585.77
2023-02-24T05:34:39.155Z,99581.59
2023-02-24T05:38:08.374Z,99580.70
2023-02-24T05:41:38.760Z,99579.63
2023-02-24T05:45:07.151Z,99580.83
2023-02-24T05:48:35.349Z,99581.69
2023-02-24T05:52:07.636Z,99579.05
2023-02-24T05:55:36.829Z,99574.69
2023-02-24T05:59:06.719Z,99571.91
2023-02-24T06:02:37.706Z,99567.21
2023-02-24T06:06:09.114Z,99567.33
2023-02-24T06:09:40.139Z,99564.21
2023-02-24T06:13:07.698Z,99566.28
2023-02-24T06:16:35.779Z,99563.65
2023-02-24T06:20:08.258Z,99559.65
2023-02-24T06:23:35.689Z,99555.84
2023-02-24T06:27:09.713Z,99554.98
2023-02-24T06:30:37.828Z,99554.98
2023-02-24T06:34:05.254Z,99551.51
2023-02-24T06:37:32.353Z,99552.55
2023-02-24T06:41:04.129Z,99550.46
2023-02-24T06:44:31.366Z,99548.36
2023-02-24T06:47:58.489Z,99549.02
2023-02-24T06:51:30.486Z,99550.41
2023-02-24T06:54:57.893Z,99561.27
2023-02-24T06:58:25.062Z,99579.12
2023-02-24T07:01:54.019Z,99584.95
2023-02-24T07:05:24.377Z,99587.75
2023-02-24T07:08:52.097Z,99582.93
2023-02-24T07:12:21.354Z,99582.73
2023-02-24T07:15:49.897Z,99583.15
2023-02-24T07:19:18.259Z,99585.42
2023-02-24T07:22:46.217Z,99585.42
2023-02-24T07:26:15.910Z,99583.86
2023-02-24T07:29:43.428Z,99581.66
2023-02-24T07:33:10.696Z,99580.02
2023-02-24T07:36:49.339Z,99582.77
2023-02-24T07:40:18.322Z,99577.56
2023-02-24T07:43:46.211Z,99577.14
2023-02-24T07:47:13.667Z,99572.73
2023-02-24T07:50:43.642Z,99567.77
2023-02-24T07:54:11.742Z,99568.31
2023-02-24T07:57:38.936Z,99566.70
2023-02-24T08:01:08.960Z,99563.20
2023-02-24T08:04:39.802Z,99562.08
2023-02-24T08:08:07.777Z,99554.55
2023-02-24T08:11:35.786Z,99550.07
2023-02-24T08:15:09.097Z,99548.02
2023-02-24T08:18:37.535Z,99544.02
2023-02-24T08:22:19.645Z,99549.37
2023-02-24T08:25:47.407Z,99546.91
2023-02-24T08:29:15.065Z,99542.42
2023-02-24T08:32:46.849Z,99539.48
2023-02-24T08:36:21.633Z,99539.55
2023-02-24T08:39:54.128Z,99535.23
2023-02-24T08:43:34.269Z,99530.45
2023-02-24T08:47:05.453Z,99529.05
2023-02-24T08:50:33.918Z,99526.30
2023-02-24T08:54:03.598Z,99514.09
2023-02-24T08:57:36.357Z,99516.91
2023-02-24T09:01:03.941Z,99516.98
2023-02-24T09:04:31.179Z,99511.44
2023-02-24T09:07:58.508Z,99507.23
2023-02-24T09:11:25.601Z,99509.27
2023-02-24T09:14:58.047Z,99503.27
2023-02-24T09:18:30.296Z,99498.71
2023-02-24T09:22:21.167Z,99495.64
2023-02-24T09:25:54.377Z,99491.60
2023-02-24T09:29:49.311Z,99484.60
2023-02-24T09:33:19.010Z,99483.02
2023-02-24T09:37:01.498Z,99482.41
2023-02-24T09:40:45.653Z,99479.44
2023-02-24T09:44:18.866Z,99479.80
2023-02-24T09:47:57.761Z,99473.81
2023-02-24T09:51:29.199Z,99467.66
2023-02-24T09:55:25.406Z,99467.89
2023-02-24T09:58:58.885Z,99461.37
2023-02-24T10:02:44.720Z,99452.90
2023-02-24T10:06:20.816Z,99444.51
2023-02-24T10:09:54.618Z,99439.73
2023-02-24T10:13:32.635Z,99438.35
2023-02-24T10:17:17.712Z,99437.19
2023-02-24T10:20:49.418Z,99430.64
2023-02-24T10:24:22.983Z,99424.20
2023-02-24T10:28:05.026Z,99419.45
2023-02-24T10:31:40.117Z,99415.85
2023-02-24T10:35:14.443Z,99409.77
2023-02-24T10:38:45.643Z,99408.80
2023-02-24T10:42:24.272Z,99401.33
2023-02-24T10:45:57.505Z,99397.17
2023-02-24T10:49:26.628Z,99392.65
2023-02-24T10:53:34.835Z,99388.44
2023-02-24T10:57:15.827Z,99375.46
2023-02-24T11:01:01.492Z,99366.64
2023-02-24T11:04:53.903Z,99353.61
2023-02-24T11:08:40.288Z,99342.02
2023-02-24T11:12:35.723Z,99335.52
2023-02-24T11:16:21.225Z,99329.56
2023-02-24T11:19:59.496Z,99317.85
2023-02-24T11:23:30.662Z,99309.61
2023-02-24T11:26:58.678Z,99290.09
2023-02-24T11:30:37.006Z,99275.05
2023-02-24T11:34:10.740Z,99264.02
2023-02-24T11:37:43.410Z,99261.14
2023-02-24T11:41:23.106Z,99257.65
2023-02-24T11:44:55.680Z,99258.45
2023-02-24T11:48:27.579Z,99259.44
2023-02-24T11:51:56.912Z,99249.11
2023-02-24T11:55:36.163Z,99245.20
2023-02-24T11:59:08.461Z,99242.98
2023-02-24T12:02:44.742Z,99236.79
2023-02-24T12:06:21.295Z,99233.23
2023-02-24T12:09:56.319Z,99232.40
2023-02-24T12:13:33.868Z,99230.94
2023-02-24T12:17:12.162Z,99223.65
2023-02-24T12:20:46.591Z,99213.23
2023-02-24T12:24:20.015Z,99210.16
2023-02-24T12:28:02.066Z,99207.86
2023-02-24T12:31:37.658Z,99198.66
2023-02-24T12:35:16.755Z,99193.20
2023-02-24T12:38:56.032Z,99183.45
2023-02-24T12:42:30.938Z,99173.34
2023-02-24T12:46:04.521Z,99171.92
2023-02-24T12:49:45.864Z,99160.34
2023-02-24T12:53:21.895Z,99161.94
2023-02-24T12:56:54.073Z,99159.77
2023-02-24T13:00:31.818Z,99156.39
2023-02-24T13:04:12.160Z,99151.85
2023-02-24T13:07:53.363Z,99145.77
2023-02-24T13:11:28.902Z,99144.66
2023-02-24T13:14:56.620Z,99132.96
2023-02-24T13:18:32.562Z,99132.73
2023-02-24T13:22:04.848Z,99123.51
2023-02-24T13:25:38.491Z,99122.20
2023-02-24T13:29:13.457Z,99114.14
2023-02-24T13:32:44.012Z,99108.98
2023-02-24T13:36:22.867Z,99098.36
2023-02-24T13:39:50.266Z,99091.79
2023-02-24T13:43:26.624Z,99088.75
2023-02-24T13:47:14.004Z,99083.78
2023-02-24T13:50:56.328Z,99078.29
2023-02-24T13:54:43.695Z,99073.38
2023-02-24T13:58:34.092Z,99066.08
2023-02-24T14:02:04.235Z,99059.27
2023-02-24T14:05:35.888Z,99056.99
2023-02-24T14:09:06.880Z,99054.01
2023-02-24T14:12:36.439Z,99052.92
2023-02-24T14:16:07.542Z,99050.09
2023-02-24T14:19:34.771Z,99042.58
2023-02-24T14:23:02.637Z,99030.05
2023-02-24T14:26:34.194Z,99028.77
2023-02-24T14:30:02.261Z,99027.35
2023-02-24T14:33:33.424Z,99023.80
2023-02-24T14:37:03.970Z,99020.79
2023-02-24T14:40:31.285Z,99016.39
2023-02-24T14:43:58.361Z,99015.83
2023-02-24T14:47:27.441Z,99006.28
2023-02-24T14:50:55.472Z,99002.08
2023-02-24T14:54:35.950Z,99002.89
2023-02-24T14:58:07.779Z,98998.32
2023-02-24T15:01:38.844Z,98986.47
2023-02-24T15:05:09.266Z,98985.35
2023-02-24T15:08:41.707Z,98977.34
2023-02-24T15:12:21.013Z,98971.60
2023-02-24T15:15:48.826Z,98963.98
2023-02-24T15:19:29.034Z,98956.88
2023-02-24T15:22:56.313Z,98948.55
2023-02-24T15:26:34.829Z,98945.95
2023-02-24T15:30:10.295Z,98939.54
2023-02-24T15:33:40.723Z,98934.00
2023-02-24T15:37:18.434Z,98929.47
2023-02-24T15:40:55.532Z,98924.58
2023-02-24T15:44:30.473Z,98914.81
2023-02-24T15:47:59.358Z,98919.55
2023-02-24T15:51:35.792Z,98911.53
2023-02-24T15:55:03.682Z,98905.08
2023-02-24T15:58:33.165Z,98899.85
2023-02-24T16:02:00.329Z,98897.89
2023-02-24T16:05:28.103Z,98887.30
2023-02-24T16:08:57.086Z,98886.02
2023-02-24T16:12:29.382Z,98879.88
2023-02-24T16:15:56.780Z,98875.30
2023-02-24T16:19:24.061Z,98869.53
2023-02-24T16:22:51.267Z,98870.50
2023-02-24T16:26:23.058Z,98865.27
2023-02-24T16:29:51.239Z,98865.55
2023-02-24T16:33:21.164Z,98864.84
2023-02-24T16:36:48.505Z,98856.34
2023-02-24T16:40:23.283Z,98847.86
2023-02-24T16:43:50.661Z,98852.87
2023-02-24T16:47:21.932Z,98850.26
2023-02-24T16:50:49.464Z,98846.42
2023-02-24T16:54:16.653Z,98838.67
2023-02-24T16:57:44.363Z,98837.10
2023-02-24T17:01:17.149Z,98831.56
2023-02-24T17:04:44.548Z,98828.21
2023-02-24T17:08:14.331Z,98822.83
2023-02-24T17:11:41.404Z,98822.24
2023-02-24T17:15:14.676Z,98820.64
2023-02-24T17:18:41.860Z,98822.45
2023-02-24T17:22:10.271Z,98817.39
2023-02-24T17:25:37.601Z,98817.17
2023-02-24T17:29:06.045Z,98814.40
2023-02-24T17:32:33.219Z,98813.34
2023-02-24T17:36:00.321Z,98809.20
2023-02-24T17:39:27.822Z,98811.08
2023-02-24T17:42:54.943Z,98804.15
2023-02-24T17:46:22.866Z,98804.27
2023-02-24T17:49:50.484Z,98796.47
2023-02-24T17:53:18.381Z,98793.70
2023-02-24T17:56:45.476Z,98790.91
2023-02-24T18:00:15.626Z,98786.52
2023-02-24T18:03:43.109Z,98773.16
2023-02-24T18:07:12.001Z,98761.88
2023-02-24T18:10:39.050Z,98759.95
2023-02-24T18:14:06.854Z,98753.32
2023-02-24T18:17:34.400Z,98754.64
2023-02-24T18:21:05.429Z,98747.33
2023-02-24T18:24:34.450Z,98748.89
2023-02-24T18:28:01.561Z,98742.88
2023-02-24T18:31:30.231Z,98742.96
2023-02-24T18:34:57.769Z,98741.02
2023-02-24T18:38:25.013Z,98738.59
2023-02-24T18:41:52.159Z,98738.59
2023-02-24T18:45:19.909Z,98731.00
2023-02-24T18:48:48.262Z,98724.15
2023-02-24T18:52:15.530Z,98727.43
2023-02-24T18:55:42.682Z,98726.58
2023-02-24T18:59:09.798Z,98718.98
2023-02-24T19:02:36.967Z,98719.33
2023-02-24T19:06:04.549Z,98709.65
2023-02-24T19:09:32.119Z,98706.53
2023-02-24T19:12:59.554Z,98698.58
2023-02-24T19:16:26.669Z,98690.83
2023-02-24T19:19:54.599Z,98688.24
2023-02-24T19:23:22.067Z,98682.20
2023-02-24T19:26:51.213Z,98680.08
2023-02-24T19:30:19.500Z,98675.55
2023-02-24T19:33:46.952Z,98675.85
2023-02-24T19:37:14.217Z,98670.98
2023-02-24T19:40:41.434Z,98670.07
2023-02-24T19:44:10.280Z,98665.71
2023-02-24T19:47:37.510Z,98662.03
2023-02-24T19:51:10.124Z,98660.95
2023-02-24T19:54:37.268Z,98663.14
2023-02-24T19:58:04.852Z,98658.64
2023-02-24T20:01:32.713Z,98650.70
2023-02-24T20:05:00.893Z,98648.81
2023-02-24T20:08:28.138Z,98642.09
2023-02-24T20:11:57.337Z,98641.78
2023-02-24T20:15:24.659Z,98635.57
2023-02-24T20:18:51.971Z,98635.88
2023-02-24T20:22:19.432Z,98628.77
2023-02-24T20:25:53.750Z,98622.69
2023-02-24T20:29:22.329Z,98622.47
2023-02-24T20:32:49.770Z,98622.58
2023-02-24T20:36:19.043Z,98619.95
2023-02-24T20:39:46.437Z,98615.77
2023-02-24T20:43:13.629Z,98616.27
2023-02-24T20:46:40.726Z,98605.92
2023-02-24T20:50:08.779Z,98606.41
2023-02-24T20:53:54.272Z,98602.09
2023-02-24T20:57:23.527Z,98595.98
2023-02-24T21:00:50.803Z,98592.48
2023-02-24T21:04:20.113Z,98588.83
2023-02-24T21:07:47.282Z,98585.90
2023-02-24T21:11:15.722Z,98583.65
2023-02-24T21:14:43.832Z,98586.70
2023-02-24T21:18:11.538Z,98579.41
2023-02-24T21:21:39.167Z,98576.08
2023-02-24T21:25:07.372Z,98572.96
2023-02-24T21:28:34.756Z,98559.83
2023-02-24T21:32:03.477Z,98561.55
2023-02-24T21:35:31.386Z,98557.02
2023-02-24T21:38:58.762Z,98547.88
2023-02-24T21:42:27.822Z,98542.83
2023-02-24T21:45:54.960Z,98543.27
2023-02-24T21:49:23.528Z,98548.01
2023-02-24T21:52:51.294Z,98551.08
2023-02-24T21:56:20.062Z,98545.04
2023-02-24T21:59:47.692Z,98542.48
2023-02-24T22:03:24.302Z,98541.12
2023-02-24T22:06:51.952Z,98536.45
2023-02-24T22:10:22.109Z,98527.29
2023-02-24T22:13:49.777Z,98524.35
2023-02-24T22:17:17.083Z,98518.09
2023-02-24T22:20:44.320Z,98515.34
2023-02-24T22:24:16.346Z,98507.92
2023-02-24T22:27:43.874Z,98502.75
2023-02-24T22:31:13.560Z,98501.56
2023-02-24T22:34:41.179Z,98496.92
2023-02-24T22:38:08.575Z,98496.06
2023-02-24T22:41:37.149Z,98496.95
2023-02-24T22:45:04.599Z,98496.79
2023-02-24T22:48:34.218Z,98492.66
2023-02-24T22:52:01.736Z,98490.08
2023-02-24T22:55:31.987Z,98483.73
2023-02-24T22:59:00.646Z,98481.34
2023-02-24T23:02:28.913Z,98479.66
2023-02-24T23:06:00.956Z,98479.16
2023-02-24T23:09:28.499Z,98474.89
2023-02-24T23:12:58.140Z,98467.52
2023-02-24T23:16:29.419Z,98460.14
2023-02-24T23:19:58.635Z,98463.44
2023-02-24T23:23:25.740Z,98459.84
2023-02-24T23:26:57.260Z,98458.13
2023-02-24T23:30:24.925Z,98460.91
2023-02-24T23:33:52.953Z,98454.73
2023-02-24T23:37:20.165Z,98452.34
2023-02-24T23:40:50.636Z,98449.10
2023-02-24T23:44:18.511Z,98444.10
2023-02-24T23:47:48.401Z,98432.61
2023-02-24T23:51:25.012Z,98424.35
2023-02-24T23:54:53.043Z,98426.97
2023-02-24T23:58:20.444Z,98421.48
